sensor_id;sensor_type;location;lat;lon;timestamp;P1;durP1;ratioP1;P2;durP2;ratioP2
15563;SDS011;7883;52.554;13.364;2023-02-03T12:48:25;32.23;;;6.50;;
15563;SDS011;7883;52.554;13.364;2023-02-03T12:50:59;24.43;;;4.83;;
15563;SDS011;7883;52.554;13.364;2023-02-03T12:53:29;22.50;;;5.70;;
15563;SDS011;7883;52.554;13.364;2023-02-03T12:56:01;23.37;;;4.33;;
15563;SDS011;7883;52.554;13.364;2023-02-03T12:58:32;25.57;;;3.67;;
15563;SDS011;7883;52.554;13.364;2023-02-03T13:01:03;10.88;;;2.40;;
15563;SDS011;7883;52.554;13.364;2023-02-03T13:03:34;8.73;;;2.03;;
15563;SDS011;7883;52.554;13.364;2023-02-03T13:06:06;13.20;;;2.20;;
15563;SDS011;7883;52.554;13.364;2023-02-03T13:08:41;9.15;;;2.00;;
15563;SDS011;7883;52.554;13.364;2023-02-03T13:11:17;18.65;;;3.05;;
15563;SDS011;7883;52.554;13.364;2023-02-03T13:13:51;15.68;;;2.60;;
15563;SDS011;7883;52.554;13.364;2023-02-03T13:16:27;15.68;;;3.10;;
15563;SDS011;7883;52.554;13.364;2023-02-03T13:19:01;13.88;;;2.42;;
15563;SDS011;7883;52.554;13.364;2023-02-03T13:21:31;13.65;;;2.85;;
15563;SDS011;7883;52.554;13.364;2023-02-03T13:23:58;16.42;;;3.10;;
15563;SDS011;7883;52.554;13.364;2023-02-03T13:29:32;19.25;;;3.88;;
15563;SDS011;7883;52.554;13.364;2023-02-03T13:32:14;19.05;;;3.50;;
15563;SDS011;7883;52.554;13.364;2023-02-03T13:34:59;15.50;;;3.35;;
15563;SDS011;7883;52.554;13.364;2023-02-03T13:37:47;14.63;;;2.63;;
15563;SDS011;7883;52.554;13.364;2023-02-03T13:40:32;22.73;;;3.17;;
15563;SDS011;7883;52.554;13.364;2023-02-03T13:43:05;16.90;;;3.25;;
15563;SDS011;7883;52.554;13.364;2023-02-03T13:45:38;18.70;;;4.20;;
15563;SDS011;7883;52.554;13.364;2023-02-03T13:48:12;20.17;;;3.60;;
15563;SDS011;7883;52.554;13.364;2023-02-03T13:50:43;21.03;;;3.50;;
15563;SDS011;7883;52.554;13.364;2023-02-03T13:53:15;20.90;;;4.20;;
15563;SDS011;7883;52.554;13.364;2023-02-03T13:55:44;19.87;;;3.83;;
15563;SDS011;7883;52.554;13.364;2023-02-03T13:58:19;14.70;;;3.17;;
15563;SDS011;7883;52.554;13.364;2023-02-03T14:00:59;20.63;;;4.33;;
15563;SDS011;7883;52.554;13.364;2023-02-03T14:09:36;18.17;;;3.97;;
15563;SDS011;7883;52.554;13.364;2023-02-03T14:12:12;25.87;;;5.10;;
15563;SDS011;7883;52.554;13.364;2023-02-03T14:14:59;19.00;;;5.80;;
15563;SDS011;7883;52.554;13.364;2023-02-03T14:23:44;29.37;;;5.70;;
15563;SDS011;7883;52.554;13.364;2023-02-03T14:26:29;21.70;;;4.33;;
15563;SDS011;7883;52.554;13.364;2023-02-03T14:28:59;26.00;;;4.60;;
15563;SDS011;7883;52.554;13.364;2023-02-03T14:31:28;18.60;;;3.97;;
15563;SDS011;7883;52.554;13.364;2023-02-03T14:34:08;26.77;;;5.20;;
15563;SDS011;7883;52.554;13.364;2023-02-03T14:36:46;24.70;;;4.10;;
15563;SDS011;7883;52.554;13.364;2023-02-03T14:42:22;27.87;;;4.43;;
15563;SDS011;7883;52.554;13.364;2023-02-03T14:45:07;25.10;;;4.83;;
15563;SDS011;7883;52.554;13.364;2023-02-03T14:47:48;22.93;;;4.93;;
15563;SDS011;7883;52.554;13.364;2023-02-03T14:50:32;30.63;;;5.73;;
15563;SDS011;7883;52.554;13.364;2023-02-03T14:53:17;31.33;;;6.27;;
15563;SDS011;7883;52.554;13.364;2023-02-03T14:55:55;31.27;;;6.03;;
15563;SDS011;7883;52.554;13.364;2023-02-03T14:58:34;27.17;;;5.70;;
15563;SDS011;7883;52.554;13.364;2023-02-03T15:01:11;27.83;;;6.20;;
15563;SDS011;7883;52.554;13.364;2023-02-03T15:06:49;25.67;;;5.47;;
15563;SDS011;7883;52.554;13.364;2023-02-03T15:09:19;22.47;;;5.57;;
15563;SDS011;7883;52.554;13.364;2023-02-03T15:11:51;30.20;;;6.53;;
15563;SDS011;7883;52.554;13.364;2023-02-03T15:14:24;26.93;;;5.00;;
15563;SDS011;7883;52.554;13.364;2023-02-03T15:16:53;25.73;;;5.13;;
15563;SDS011;7883;52.554;13.364;2023-02-03T15:19:23;24.33;;;4.87;;
15563;SDS011;7883;52.554;13.364;2023-02-03T15:21:51;24.53;;;5.07;;
15563;SDS011;7883;52.554;13.364;2023-02-03T15:24:19;34.10;;;5.50;;
15563;SDS011;7883;52.554;13.364;2023-02-03T15:26:50;23.73;;;5.10;;
15563;SDS011;7883;52.554;13.364;2023-02-03T15:29:19;20.23;;;3.83;;
15563;SDS011;7883;52.554;13.364;2023-02-03T15:31:51;24.90;;;5.73;;
15563;SDS011;7883;52.554;13.364;2023-02-03T15:34:32;27.60;;;5.20;;
15563;SDS011;7883;52.554;13.364;2023-02-03T15:37:06;21.57;;;4.10;;
15563;SDS011;7883;52.554;13.364;2023-02-03T15:39:41;27.53;;;5.10;;
15563;SDS011;7883;52.554;13.364;2023-02-03T15:42:16;21.17;;;4.10;;
15563;SDS011;7883;52.554;13.364;2023-02-03T15:44:48;24.50;;;5.27;;
15563;SDS011;7883;52.554;13.364;2023-02-03T15:47:24;24.17;;;4.83;;
15563;SDS011;7883;52.554;13.364;2023-02-03T15:50:02;20.53;;;3.97;;
15563;SDS011;7883;52.554;13.364;2023-02-03T15:52:42;17.70;;;4.13;;
15563;SDS011;7883;52.554;13.364;2023-02-03T15:55:15;26.67;;;5.27;;
15563;SDS011;7883;52.554;13.364;2023-02-03T15:57:48;24.57;;;4.57;;
15563;SDS011;7883;52.554;13.364;2023-02-03T16:00:25;26.97;;;4.20;;
15563;SDS011;7883;52.554;13.364;2023-02-03T16:03:11;23.10;;;4.83;;
15563;SDS011;7883;52.554;13.364;2023-02-03T16:05:43;20.50;;;3.87;;
15563;SDS011;7883;52.554;13.364;2023-02-03T16:08:27;23.40;;;4.87;;
15563;SDS011;7883;52.554;13.364;2023-02-03T16:11:00;17.73;;;3.47;;
15563;SDS011;7883;52.554;13.364;2023-02-03T16:13:28;20.23;;;4.97;;
15563;SDS011;7883;52.554;13.364;2023-02-03T16:16:01;27.43;;;4.80;;
15563;SDS011;7883;52.554;13.364;2023-02-03T16:18:34;23.43;;;4.40;;
15563;SDS011;7883;52.554;13.364;2023-02-03T16:21:03;25.77;;;6.07;;
15563;SDS011;7883;52.554;13.364;2023-02-03T16:23:30;26.80;;;5.67;;
15563;SDS011;7883;52.554;13.364;2023-02-03T16:26:05;21.80;;;4.83;;
15563;SDS011;7883;52.554;13.364;2023-02-03T16:28:44;23.60;;;5.03;;
15563;SDS011;7883;52.554;13.364;2023-02-03T16:31:40;27.60;;;5.33;;
15563;SDS011;7883;52.554;13.364;2023-02-03T16:34:30;24.93;;;5.50;;
15563;SDS011;7883;52.554;13.364;2023-02-03T16:37:19;22.37;;;4.33;;
15563;SDS011;7883;52.554;13.364;2023-02-03T16:40:10;19.60;;;3.73;;
15563;SDS011;7883;52.554;13.364;2023-02-03T16:42:56;23.83;;;5.50;;
15563;SDS011;7883;52.554;13.364;2023-02-03T16:45:41;29.27;;;5.37;;
15563;SDS011;7883;52.554;13.364;2023-02-03T16:48:25;30.70;;;6.37;;
15563;SDS011;7883;52.554;13.364;2023-02-03T16:51:11;17.03;;;3.57;;
15563;SDS011;7883;52.554;13.364;2023-02-03T16:53:41;24.30;;;5.30;;
15563;SDS011;7883;52.554;13.364;2023-02-03T16:56:12;22.10;;;4.80;;
15563;SDS011;7883;52.554;13.364;2023-02-03T16:58:41;21.20;;;4.00;;
15563;SDS011;7883;52.554;13.364;2023-02-03T17:01:09;27.93;;;5.47;;
15563;SDS011;7883;52.554;13.364;2023-02-03T17:03:37;29.97;;;5.67;;
15563;SDS011;7883;52.554;13.364;2023-02-03T17:06:04;29.57;;;5.20;;
15563;SDS011;7883;52.554;13.364;2023-02-03T17:08:34;26.13;;;5.93;;
15563;SDS011;7883;52.554;13.364;2023-02-03T17:11:03;31.63;;;5.90;;
15563;SDS011;7883;52.554;13.364;2023-02-03T17:13:31;23.53;;;4.30;;
15563;SDS011;7883;52.554;13.364;2023-02-03T17:15:58;28.20;;;5.77;;
15563;SDS011;7883;52.554;13.364;2023-02-03T17:18:25;27.30;;;4.87;;
15563;SDS011;7883;52.554;13.364;2023-02-03T17:20:52;28.23;;;6.03;;
15563;SDS011;7883;52.554;13.364;2023-02-03T17:23:20;21.15;;;4.45;;
15563;SDS011;7883;52.554;13.364;2023-02-03T17:25:48;27.07;;;5.33;;
15563;SDS011;7883;52.554;13.364;2023-02-03T17:28:16;29.23;;;5.47;;
15563;SDS011;7883;52.554;13.364;2023-02-03T17:30:43;18.67;;;3.93;;
15563;SDS011;7883;52.554;13.364;2023-02-03T17:33:10;23.83;;;5.37;;
15563;SDS011;7883;52.554;13.364;2023-02-03T17:35:37;25.23;;;5.43;;
15563;SDS011;7883;52.554;13.364;2023-02-03T17:38:05;23.30;;;5.07;;
15563;SDS011;7883;52.554;13.364;2023-02-03T17:40:33;20.33;;;4.90;;
15563;SDS011;7883;52.554;13.364;2023-02-03T17:43:01;25.27;;;4.87;;
15563;SDS011;7883;52.554;13.364;2023-02-03T17:45:29;25.30;;;4.60;;
15563;SDS011;7883;52.554;13.364;2023-02-03T17:47:55;25.07;;;4.80;;
15563;SDS011;7883;52.554;13.364;2023-02-03T17:50:24;22.83;;;4.63;;
15563;SDS011;7883;52.554;13.364;2023-02-03T17:52:51;29.37;;;5.30;;
15563;SDS011;7883;52.554;13.364;2023-02-03T17:55:17;23.73;;;4.83;;
15563;SDS011;7883;52.554;13.364;2023-02-03T17:57:44;21.20;;;4.40;;
15563;SDS011;7883;52.554;13.364;2023-02-03T18:00:13;35.23;;;6.57;;
15563;SDS011;7883;52.554;13.364;2023-02-03T18:02:40;24.33;;;4.80;;
15563;SDS011;7883;52.554;13.364;2023-02-03T18:05:07;24.93;;;4.63;;
15563;SDS011;7883;52.554;13.364;2023-02-03T18:07:34;24.33;;;4.93;;
15563;SDS011;7883;52.554;13.364;2023-02-03T18:10:01;27.03;;;5.70;;
15563;SDS011;7883;52.554;13.364;2023-02-03T18:12:28;28.53;;;5.93;;
15563;SDS011;7883;52.554;13.364;2023-02-03T18:14:56;30.00;;;5.17;;
15563;SDS011;7883;52.554;13.364;2023-02-03T18:17:24;18.90;;;4.50;;
15563;SDS011;7883;52.554;13.364;2023-02-03T18:19:51;29.70;;;5.13;;
15563;SDS011;7883;52.554;13.364;2023-02-03T18:22:19;28.83;;;5.47;;
15563;SDS011;7883;52.554;13.364;2023-02-03T18:24:46;20.23;;;4.30;;
15563;SDS011;7883;52.554;13.364;2023-02-03T18:27:15;21.70;;;5.10;;
15563;SDS011;7883;52.554;13.364;2023-02-03T18:29:43;23.30;;;5.13;;
15563;SDS011;7883;52.554;13.364;2023-02-03T18:32:10;23.77;;;4.87;;
15563;SDS011;7883;52.554;13.364;2023-02-03T18:34:39;17.47;;;4.60;;
15563;SDS011;7883;52.554;13.364;2023-02-03T18:37:06;22.73;;;4.50;;
15563;SDS011;7883;52.554;13.364;2023-02-03T18:39:33;21.73;;;4.00;;
15563;SDS011;7883;52.554;13.364;2023-02-03T18:42:00;21.40;;;4.63;;
15563;SDS011;7883;52.554;13.364;2023-02-03T18:44:27;22.67;;;4.33;;
15563;SDS011;7883;52.554;13.364;2023-02-03T18:46:56;17.90;;;4.03;;
15563;SDS011;7883;52.554;13.364;2023-02-03T18:49:30;21.50;;;4.20;;
15563;SDS011;7883;52.554;13.364;2023-02-03T18:51:59;26.43;;;6.63;;
15563;SDS011;7883;52.554;13.364;2023-02-03T18:54:26;22.93;;;4.90;;
15563;SDS011;7883;52.554;13.364;2023-02-03T18:56:54;20.80;;;4.20;;
15563;SDS011;7883;52.554;13.364;2023-02-03T18:59:22;25.97;;;4.27;;
15563;SDS011;7883;52.554;13.364;2023-02-03T19:01:49;19.80;;;4.37;;
15563;SDS011;7883;52.554;13.364;2023-02-03T19:04:16;21.37;;;3.97;;
15563;SDS011;7883;52.554;13.364;2023-02-03T19:06:44;20.57;;;3.63;;
15563;SDS011;7883;52.554;13.364;2023-02-03T19:09:13;22.10;;;4.53;;
15563;SDS011;7883;52.554;13.364;2023-02-03T19:11:42;19.23;;;5.73;;
15563;SDS011;7883;52.554;13.364;2023-02-03T19:14:10;23.87;;;3.33;;
15563;SDS011;7883;52.554;13.364;2023-02-03T19:16:38;20.97;;;3.77;;
15563;SDS011;7883;52.554;13.364;2023-02-03T19:19:05;17.37;;;3.30;;
15563;SDS011;7883;52.554;13.364;2023-02-03T19:21:34;23.40;;;6.67;;
15563;SDS011;7883;52.554;13.364;2023-02-03T19:24:00;20.30;;;4.30;;
15563;SDS011;7883;52.554;13.364;2023-02-03T19:26:30;13.87;;;2.97;;
15563;SDS011;7883;52.554;13.364;2023-02-03T19:28:57;14.00;;;3.07;;
15563;SDS011;7883;52.554;13.364;2023-02-03T19:31:24;13.97;;;3.07;;
15563;SDS011;7883;52.554;13.364;2023-02-03T19:33:51;15.83;;;3.03;;
15563;SDS011;7883;52.554;13.364;2023-02-03T19:36:18;14.93;;;2.87;;
15563;SDS011;7883;52.554;13.364;2023-02-03T19:38:45;15.60;;;2.90;;
15563;SDS011;7883;52.554;13.364;2023-02-03T19:41:12;16.90;;;3.00;;
15563;SDS011;7883;52.554;13.364;2023-02-03T19:43:40;17.03;;;3.60;;
15563;SDS011;7883;52.554;13.364;2023-02-03T19:46:07;12.70;;;2.70;;
15563;SDS011;7883;52.554;13.364;2023-02-03T19:48:34;14.20;;;3.00;;
15563;SDS011;7883;52.554;13.364;2023-02-03T19:51:02;18.70;;;3.30;;
15563;SDS011;7883;52.554;13.364;2023-02-03T19:53:29;13.97;;;2.70;;
15563;SDS011;7883;52.554;13.364;2023-02-03T19:55:57;15.20;;;2.80;;
15563;SDS011;7883;52.554;13.364;2023-02-03T19:58:24;16.50;;;2.63;;
15563;SDS011;7883;52.554;13.364;2023-02-03T20:00:52;13.17;;;2.77;;
15563;SDS011;7883;52.554;13.364;2023-02-03T20:03:19;16.30;;;2.90;;
15563;SDS011;7883;52.554;13.364;2023-02-03T20:05:46;15.77;;;2.90;;
15563;SDS011;7883;52.554;13.364;2023-02-03T20:08:17;14.80;;;3.40;;
15563;SDS011;7883;52.554;13.364;2023-02-03T20:10:43;15.77;;;2.63;;
15563;SDS011;7883;52.554;13.364;2023-02-03T20:13:10;14.10;;;2.53;;
15563;SDS011;7883;52.554;13.364;2023-02-03T20:15:37;11.63;;;2.77;;
15563;SDS011;7883;52.554;13.364;2023-02-03T20:18:06;19.67;;;6.00;;
15563;SDS011;7883;52.554;13.364;2023-02-03T20:20:33;14.30;;;3.43;;
15563;SDS011;7883;52.554;13.364;2023-02-03T20:23:00;12.67;;;2.27;;
15563;SDS011;7883;52.554;13.364;2023-02-03T20:25:27;10.33;;;2.40;;
15563;SDS011;7883;52.554;13.364;2023-02-03T20:27:56;7.13;;;2.00;;
15563;SDS011;7883;52.554;13.364;2023-02-03T20:30:26;10.43;;;2.40;;
15563;SDS011;7883;52.554;13.364;2023-02-03T20:32:53;9.17;;;2.10;;
15563;SDS011;7883;52.554;13.364;2023-02-03T20:35:21;8.70;;;1.95;;
15563;SDS011;7883;52.554;13.364;2023-02-03T20:37:49;8.45;;;1.90;;
15563;SDS011;7883;52.554;13.364;2023-02-03T20:40:16;10.43;;;1.93;;
15563;SDS011;7883;52.554;13.364;2023-02-03T20:42:46;13.63;;;2.67;;
15563;SDS011;7883;52.554;13.364;2023-02-03T20:45:14;11.50;;;2.17;;
15563;SDS011;7883;52.554;13.364;2023-02-03T20:47:42;7.60;;;1.73;;
15563;SDS011;7883;52.554;13.364;2023-02-03T20:50:11;13.80;;;3.33;;
15563;SDS011;7883;52.554;13.364;2023-02-03T20:52:41;10.10;;;2.00;;
15563;SDS011;7883;52.554;13.364;2023-02-03T20:55:10;6.97;;;1.63;;
15563;SDS011;7883;52.554;13.364;2023-02-03T20:57:38;11.23;;;2.20;;
15563;SDS011;7883;52.554;13.364;2023-02-03T21:00:11;8.27;;;1.90;;
15563;SDS011;7883;52.554;13.364;2023-02-03T21:02:40;7.10;;;1.47;;
15563;SDS011;7883;52.554;13.364;2023-02-03T21:05:25;4.40;;;1.20;;
15563;SDS011;7883;52.554;13.364;2023-02-03T21:07:54;8.83;;;1.37;;
15563;SDS011;7883;52.554;13.364;2023-02-03T21:10:21;6.37;;;1.73;;
15563;SDS011;7883;52.554;13.364;2023-02-03T21:12:49;9.10;;;1.33;;
15563;SDS011;7883;52.554;13.364;2023-02-03T21:15:17;2.65;;;0.88;;
15563;SDS011;7883;52.554;13.364;2023-02-03T21:17:45;5.63;;;1.13;;
15563;SDS011;7883;52.554;13.364;2023-02-03T21:20:17;2.55;;;0.65;;
15563;SDS011;7883;52.554;13.364;2023-02-03T21:22:51;1.52;;;0.50;;
15563;SDS011;7883;52.554;13.364;2023-02-03T21:25:24;2.33;;;0.85;;
15563;SDS011;7883;52.554;13.364;2023-02-03T21:27:53;3.28;;;0.77;;
15563;SDS011;7883;52.554;13.364;2023-02-03T21:30:24;3.08;;;0.90;;
15563;SDS011;7883;52.554;13.364;2023-02-03T21:32:57;3.17;;;1.13;;
15563;SDS011;7883;52.554;13.364;2023-02-03T21:35:25;3.15;;;0.82;;
15563;SDS011;7883;52.554;13.364;2023-02-03T21:37:57;2.55;;;0.60;;
15563;SDS011;7883;52.554;13.364;2023-02-03T21:40:28;0.82;;;0.50;;
15563;SDS011;7883;52.554;13.364;2023-02-03T21:42:56;1.88;;;0.90;;
15563;SDS011;7883;52.554;13.364;2023-02-03T21:45:25;2.65;;;0.88;;
15563;SDS011;7883;52.554;13.364;2023-02-03T21:48:00;4.05;;;0.80;;
15563;SDS011;7883;52.554;13.364;2023-02-03T21:50:47;2.00;;;0.68;;
15563;SDS011;7883;52.554;13.364;2023-02-03T21:53:19;3.78;;;0.70;;
15563;SDS011;7883;52.554;13.364;2023-02-03T21:55:53;3.40;;;1.75;;
15563;SDS011;7883;52.554;13.364;2023-02-03T21:58:21;16.08;;;7.07;;
15563;SDS011;7883;52.554;13.364;2023-02-03T22:00:49;13.15;;;7.05;;
15563;SDS011;7883;52.554;13.364;2023-02-03T22:03:17;3.58;;;1.20;;
15563;SDS011;7883;52.554;13.364;2023-02-03T22:05:50;1.13;;;0.70;;
15563;SDS011;7883;52.554;13.364;2023-02-03T22:08:20;4.93;;;0.70;;
15563;SDS011;7883;52.554;13.364;2023-02-03T22:10:48;2.10;;;0.80;;
15563;SDS011;7883;52.554;13.364;2023-02-03T22:13:17;4.28;;;0.98;;
15563;SDS011;7883;52.554;13.364;2023-02-03T22:15:44;1.98;;;0.82;;
15563;SDS011;7883;52.554;13.364;2023-02-03T22:18:12;2.17;;;0.73;;
15563;SDS011;7883;52.554;13.364;2023-02-03T22:20:40;2.53;;;0.70;;
15563;SDS011;7883;52.554;13.364;2023-02-03T22:23:07;2.40;;;1.48;;
15563;SDS011;7883;52.554;13.364;2023-02-03T22:25:34;2.42;;;0.82;;
15563;SDS011;7883;52.554;13.364;2023-02-03T22:28:00;1.15;;;0.80;;
15563;SDS011;7883;52.554;13.364;2023-02-03T22:30:29;1.45;;;0.80;;
15563;SDS011;7883;52.554;13.364;2023-02-03T22:32:56;1.02;;;0.75;;
15563;SDS011;7883;52.554;13.364;2023-02-03T22:35:23;4.22;;;1.17;;
15563;SDS011;7883;52.554;13.364;2023-02-03T22:37:50;1.48;;;0.85;;
15563;SDS011;7883;52.554;13.364;2023-02-03T22:40:18;2.58;;;0.90;;
15563;SDS011;7883;52.554;13.364;2023-02-03T22:42:45;3.13;;;1.40;;
15563;SDS011;7883;52.554;13.364;2023-02-03T22:45:12;1.73;;;0.82;;
15563;SDS011;7883;52.554;13.364;2023-02-03T22:47:41;2.00;;;1.05;;
15563;SDS011;7883;52.554;13.364;2023-02-03T22:50:10;5.60;;;1.40;;
15563;SDS011;7883;52.554;13.364;2023-02-03T22:52:37;3.70;;;1.55;;
15563;SDS011;7883;52.554;13.364;2023-02-03T22:55:05;1.88;;;1.08;;
15563;SDS011;7883;52.554;13.364;2023-02-03T22:57:33;2.53;;;1.20;;
15563;SDS011;7883;52.554;13.364;2023-02-03T23:00:02;3.50;;;1.33;;
15563;SDS011;7883;52.554;13.364;2023-02-03T23:02:35;2.53;;;1.15;;
15563;SDS011;7883;52.554;13.364;2023-02-03T23:05:05;2.33;;;1.30;;
15563;SDS011;7883;52.554;13.364;2023-02-03T23:07:33;2.97;;;1.27;;
15563;SDS011;7883;52.554;13.364;2023-02-03T23:10:02;2.35;;;1.27;;
15563;SDS011;7883;52.554;13.364;2023-02-03T23:12:30;3.25;;;1.20;;
15563;SDS011;7883;52.554;13.364;2023-02-03T23:14:57;3.80;;;1.00;;
15563;SDS011;7883;52.554;13.364;2023-02-03T23:17:24;1.55;;;0.85;;
15563;SDS011;7883;52.554;13.364;2023-02-03T23:19:51;5.03;;;1.27;;
15563;SDS011;7883;52.554;13.364;2023-02-03T23:22:19;1.35;;;0.90;;
15563;SDS011;7883;52.554;13.364;2023-02-03T23:24:46;4.00;;;1.20;;
15563;SDS011;7883;52.554;13.364;2023-02-03T23:27:13;2.90;;;1.52;;
15563;SDS011;7883;52.554;13.364;2023-02-03T23:29:40;10.27;;;4.47;;
15563;SDS011;7883;52.554;13.364;2023-02-03T23:32:07;6.60;;;3.13;;
15563;SDS011;7883;52.554;13.364;2023-02-03T23:34:36;1.30;;;1.02;;
15563;SDS011;7883;52.554;13.364;2023-02-03T23:37:21;5.28;;;1.40;;
15563;SDS011;7883;52.554;13.364;2023-02-03T23:39:49;2.65;;;1.20;;
15563;SDS011;7883;52.554;13.364;2023-02-03T23:42:16;2.63;;;1.33;;
15563;SDS011;7883;52.554;13.364;2023-02-03T23:44:43;1.75;;;1.23;;
15563;SDS011;7883;52.554;13.364;2023-02-03T23:47:10;2.97;;;1.42;;
15563;SDS011;7883;52.554;13.364;2023-02-03T23:49:37;4.00;;;1.40;;
15563;SDS011;7883;52.554;13.364;2023-02-03T23:52:04;1.83;;;1.10;;
15563;SDS011;7883;52.554;13.364;2023-02-03T23:54:32;1.60;;;1.17;;
15563;SDS011;7883;52.554;13.364;2023-02-03T23:56:59;3.63;;;1.50;;
15563;SDS011;7883;52.554;13.364;2023-02-03T23:59:28;1.75;;;1.33;;
